Time;durP1;ratioP1;P1;durP2;ratioP2;P2;SDS_P1;SDS_P2;PMS_P1;PMS_P2;Temp;Humidity;BMP_temperature;BMP_pressure;BME280_temperature;BME280_humidity;BME280_pressure;Samples;Min_cycle;Max_cycle;Signal;HPM_P1;HPM_P2
2023/08/27 00:01:01;;;;;;;11.00;5.30;;;;;;;;;;5031526;28;20041;-70
2023/08/27 00:03:27;;;;;;;11.52;6.13;;;;;;;;;;5032373;28;20451;-71
2023/08/27 00:05:53;;;;;;;9.13;5.82;;;;;;;;;;5032476;28;20044;-71
2023/08/27 00:08:18;;;;;;;8.35;5.68;;;;;;;;;;5032243;28;20386;-71
2023/08/27 00:10:44;;;;;;;9.70;5.70;;;;;;;;;;5026255;28;20033;-72
2023/08/27 00:13:10;;;;;;;13.73;5.57;;;;;;;;;;5022690;28;20200;-72
2023/08/27 00:15:36;;;;;;;9.02;4.90;;;;;;;;;;5023844;28;20048;-71
2023/08/27 00:18:03;;;;;;;7.97;5.57;;;;;;;;;;5016192;28;20431;-71
2023/08/27 00:20:33;;;;;;;10.52;5.40;;;;;;;;;;5012774;28;20049;-71
2023/08/27 00:22:58;;;;;;;10.80;5.60;;;;;;;;;;5012433;28;20518;-71
2023/08/27 00:25:25;;;;;;;11.88;5.43;;;;;;;;;;5012179;28;20068;-71
2023/08/27 00:27:51;;;;;;;10.10;5.38;;;;;;;;;;5018663;28;20043;-71
2023/08/27 00:30:17;;;;;;;10.38;5.47;;;;;;;;;;5022547;28;20065;-70
2023/08/27 00:32:43;;;;;;;18.15;6.30;;;;;;;;;;5032009;28;20056;-71
2023/08/27 00:35:09;;;;;;;8.95;5.97;;;;;;;;;;5030568;28;20033;-71
2023/08/27 00:37:35;;;;;;;12.57;5.60;;;;;;;;;;5030244;28;20029;-71
2023/08/27 00:40:01;;;;;;;9.57;6.00;;;;;;;;;;5030553;28;20091;-70
2023/08/27 00:42:27;;;;;;;7.53;5.28;;;;;;;;;;5031267;28;20118;-71
2023/08/27 00:44:53;;;;;;;9.57;5.45;;;;;;;;;;5031579;28;20120;-71
2023/08/27 00:47:19;;;;;;;11.05;5.60;;;;;;;;;;5031505;28;20100;-71
2023/08/27 00:49:45;;;;;;;9.75;5.53;;;;;;;;;;5031635;28;20033;-70
2023/08/27 00:52:12;;;;;;;11.77;5.90;;;;;;;;;;5030561;28;20027;-70
2023/08/27 00:54:40;;;;;;;8.38;5.43;;;;;;;;;;5030571;28;20479;-71
2023/08/27 00:57:06;;;;;;;8.35;5.05;;;;;;;;;;5029592;28;20078;-70
2023/08/27 00:59:33;;;;;;;9.57;5.85;;;;;;;;;;5031701;28;20040;-70
2023/08/27 01:01:59;;;;;;;8.70;5.53;;;;;;;;;;5030084;28;20064;-71
2023/08/27 01:04:26;;;;;;;8.35;5.95;;;;;;;;;;5030037;28;20037;-71
2023/08/27 01:06:52;;;;;;;8.68;5.40;;;;;;;;;;5030113;28;20037;-71
2023/08/27 01:09:41;;;;;;;10.82;5.72;;;;;;;;;;5030104;28;20487;-70
2023/08/27 01:12:30;;;;;;;8.68;5.20;;;;;;;;;;5030231;28;20439;-70
2023/08/27 01:14:58;;;;;;;7.45;5.72;;;;;;;;;;5030289;28;20546;-71
2023/08/27 01:17:25;;;;;;;12.45;6.30;;;;;;;;;;5029843;28;20052;-71
2023/08/27 01:19:50;;;;;;;10.68;5.53;;;;;;;;;;5030051;28;20045;-71
2023/08/27 01:22:17;;;;;;;11.43;5.75;;;;;;;;;;5029815;28;20447;-70
2023/08/27 01:24:43;;;;;;;7.35;5.30;;;;;;;;;;5030291;28;20056;-70
2023/08/27 01:27:15;;;;;;;8.00;5.18;;;;;;;;;;5029843;28;20487;-72
2023/08/27 01:29:50;;;;;;;8.90;5.75;;;;;;;;;;5003938;28;20073;-71
2023/08/27 01:32:31;;;;;;;9.85;6.05;;;;;;;;;;5024051;28;20488;-72
2023/08/27 01:35:01;;;;;;;7.90;5.93;;;;;;;;;;5026441;28;20034;-72
2023/08/27 01:37:27;;;;;;;13.68;6.00;;;;;;;;;;5009452;28;20034;-72
2023/08/27 01:40:01;;;;;;;9.05;5.75;;;;;;;;;;5020892;28;20091;-71
2023/08/27 01:42:27;;;;;;;9.15;5.65;;;;;;;;;;5010742;28;20042;-71
2023/08/27 01:44:55;;;;;;;15.07;6.40;;;;;;;;;;5024207;28;20029;-70
2023/08/27 01:47:21;;;;;;;8.32;5.72;;;;;;;;;;5022160;28;20045;-71
2023/08/27 01:49:48;;;;;;;9.18;6.07;;;;;;;;;;5006634;28;20019;-71
2023/08/27 01:52:14;;;;;;;10.13;5.55;;;;;;;;;;5020339;28;20030;-71
2023/08/27 01:54:40;;;;;;;12.25;6.50;;;;;;;;;;5012680;28;20029;-70
2023/08/27 01:57:06;;;;;;;12.48;6.20;;;;;;;;;;5022811;28;20037;-71
2023/08/27 01:59:32;;;;;;;11.60;5.85;;;;;;;;;;5009879;28;20034;-71
2023/08/27 02:01:58;;;;;;;15.13;5.88;;;;;;;;;;5015792;28;20029;-69
2023/08/27 02:04:24;;;;;;;13.43;6.00;;;;;;;;;;5008097;28;20027;-71
2023/08/27 02:06:49;;;;;;;9.13;5.35;;;;;;;;;;5021223;28;20033;-71
2023/08/27 02:09:15;;;;;;;8.48;6.20;;;;;;;;;;5023655;28;20045;-74
2023/08/27 02:11:42;;;;;;;10.43;5.70;;;;;;;;;;5001261;28;20053;-72
2023/08/27 02:14:07;;;;;;;9.30;5.70;;;;;;;;;;5038394;28;20025;-71
2023/08/27 02:16:34;;;;;;;12.05;6.10;;;;;;;;;;5020982;28;20099;-70
2023/08/27 02:19:00;;;;;;;12.07;6.20;;;;;;;;;;5017508;28;20037;-71
2023/08/27 02:21:26;;;;;;;13.95;6.28;;;;;;;;;;5020068;28;20064;-71
2023/08/27 02:23:52;;;;;;;9.18;5.68;;;;;;;;;;5012478;28;20682;-71
2023/08/27 02:26:18;;;;;;;11.65;5.60;;;;;;;;;;5009351;28;20076;-71
2023/08/27 02:28:46;;;;;;;9.40;6.18;;;;;;;;;;5024166;28;20437;-72
2023/08/27 02:31:13;;;;;;;11.65;5.65;;;;;;;;;;5016091;28;20049;-71
2023/08/27 02:33:40;;;;;;;9.93;5.63;;;;;;;;;;4998772;28;20018;-71
2023/08/27 02:36:06;;;;;;;11.25;6.05;;;;;;;;;;5012308;28;20038;-70
2023/08/27 02:38:35;;;;;;;10.25;5.68;;;;;;;;;;5004834;28;20034;-71
2023/08/27 02:41:01;;;;;;;8.63;5.35;;;;;;;;;;5021040;28;20117;-71
2023/08/27 02:43:27;;;;;;;8.30;5.57;;;;;;;;;;5014797;28;20555;-71
2023/08/27 02:45:52;;;;;;;9.45;5.75;;;;;;;;;;5012489;28;20037;-72
2023/08/27 02:48:18;;;;;;;8.20;5.65;;;;;;;;;;5008459;28;20056;-71
2023/08/27 02:50:44;;;;;;;12.10;6.22;;;;;;;;;;5015435;28;20176;-71
2023/08/27 02:53:10;;;;;;;9.63;5.80;;;;;;;;;;5020831;28;20033;-72
2023/08/27 02:55:36;;;;;;;7.93;5.43;;;;;;;;;;5014005;28;20535;-71
2023/08/27 02:58:02;;;;;;;9.20;5.97;;;;;;;;;;5008295;28;20192;-71
2023/08/27 03:00:28;;;;;;;8.70;5.25;;;;;;;;;;5011524;28;20171;-71
2023/08/27 03:02:54;;;;;;;10.88;6.40;;;;;;;;;;5033111;28;20116;-71
2023/08/27 03:05:19;;;;;;;10.80;6.18;;;;;;;;;;5016564;28;20041;-71
2023/08/27 03:07:45;;;;;;;7.70;6.03;;;;;;;;;;5009450;28;20022;-71
2023/08/27 03:10:13;;;;;;;9.00;6.25;;;;;;;;;;5009011;28;20030;-71
2023/08/27 03:12:38;;;;;;;9.05;5.72;;;;;;;;;;5015254;28;20538;-71
2023/08/27 03:15:04;;;;;;;9.55;6.30;;;;;;;;;;5007042;28;20116;-71
2023/08/27 03:17:30;;;;;;;8.90;6.63;;;;;;;;;;5007752;28;20030;-71
2023/08/27 03:19:57;;;;;;;10.00;6.25;;;;;;;;;;5005111;28;20061;-72
2023/08/27 03:22:23;;;;;;;13.70;5.82;;;;;;;;;;5011787;28;20026;-71
2023/08/27 03:24:50;;;;;;;13.20;6.65;;;;;;;;;;5006129;28;20026;-71
2023/08/27 03:27:15;;;;;;;10.07;6.45;;;;;;;;;;5021738;28;20072;-72
2023/08/27 03:29:43;;;;;;;10.02;6.95;;;;;;;;;;5022158;28;20034;-71
2023/08/27 03:32:11;;;;;;;12.80;6.50;;;;;;;;;;5009538;28;20064;-71
2023/08/27 03:34:37;;;;;;;13.90;6.57;;;;;;;;;;5000038;28;20034;-72
2023/08/27 03:37:03;;;;;;;12.45;7.72;;;;;;;;;;5012383;28;20025;-71
2023/08/27 03:39:29;;;;;;;12.27;7.18;;;;;;;;;;5010487;28;20117;-71
2023/08/27 03:41:55;;;;;;;11.02;6.57;;;;;;;;;;5011320;28;20116;-71
2023/08/27 03:44:24;;;;;;;10.65;6.82;;;;;;;;;;5011316;28;20092;-72
2023/08/27 03:46:49;;;;;;;14.43;7.10;;;;;;;;;;5010757;28;20401;-70
2023/08/27 03:49:15;;;;;;;12.10;7.32;;;;;;;;;;5023488;28;20042;-70
2023/08/27 03:51:43;;;;;;;11.75;7.55;;;;;;;;;;5019419;28;20139;-71
2023/08/27 03:54:08;;;;;;;14.82;7.43;;;;;;;;;;5010186;28;20332;-71
2023/08/27 03:56:34;;;;;;;11.23;7.38;;;;;;;;;;5027226;28;20431;-72
2023/08/27 03:59:02;;;;;;;8.68;6.13;;;;;;;;;;5005845;28;20112;-71
2023/08/27 04:01:29;;;;;;;13.88;7.47;;;;;;;;;;5010946;28;20120;-71
2023/08/27 04:03:56;;;;;;;12.10;7.07;;;;;;;;;;5015871;28;20053;-70
2023/08/27 04:06:21;;;;;;;12.10;7.45;;;;;;;;;;5012188;28;20083;-71
2023/08/27 04:08:48;;;;;;;16.05;7.30;;;;;;;;;;5013050;28;20038;-71
2023/08/27 04:11:15;;;;;;;11.05;6.97;;;;;;;;;;5020080;28;20116;-71
2023/08/27 04:13:41;;;;;;;13.38;7.47;;;;;;;;;;5014208;28;20120;-71
2023/08/27 04:16:09;;;;;;;13.35;7.70;;;;;;;;;;5016895;28;20068;-70
2023/08/27 04:18:35;;;;;;;11.40;7.22;;;;;;;;;;5022438;28;20480;-71
2023/08/27 04:21:02;;;;;;;14.02;7.10;;;;;;;;;;5024453;28;20013;-71
2023/08/27 04:23:27;;;;;;;13.45;7.53;;;;;;;;;;5022080;28;20043;-71
2023/08/27 04:25:54;;;;;;;11.02;7.22;;;;;;;;;;5019507;28;20017;-71
2023/08/27 04:28:20;;;;;;;11.90;6.55;;;;;;;;;;5020249;28;20083;-70
2023/08/27 04:30:48;;;;;;;9.23;6.50;;;;;;;;;;4998061;28;20021;-71
2023/08/27 04:33:14;;;;;;;12.00;7.28;;;;;;;;;;5022137;28;20095;-71
2023/08/27 04:35:40;;;;;;;12.20;7.05;;;;;;;;;;5020380;28;20028;-72
2023/08/27 04:38:06;;;;;;;10.25;6.82;;;;;;;;;;5013390;28;20031;-71
2023/08/27 04:40:32;;;;;;;10.05;6.85;;;;;;;;;;5018502;28;20044;-71
2023/08/27 04:42:58;;;;;;;10.02;6.50;;;;;;;;;;5019337;28;20108;-72
2023/08/27 04:45:24;;;;;;;10.40;6.97;;;;;;;;;;5018430;28;20125;-71
2023/08/27 04:47:50;;;;;;;14.20;6.82;;;;;;;;;;5031607;28;20129;-71
2023/08/27 04:50:16;;;;;;;19.17;7.15;;;;;;;;;;4999323;28;20017;-71
2023/08/27 04:52:42;;;;;;;12.05;6.82;;;;;;;;;;5022580;28;20236;-71
2023/08/27 04:55:08;;;;;;;9.20;6.97;;;;;;;;;;5023441;28;20017;-72
2023/08/27 04:57:34;;;;;;;14.10;6.40;;;;;;;;;;5015046;28;20114;-70
2023/08/27 05:00:09;;;;;;;11.13;6.35;;;;;;;;;;5018829;28;20026;-72
2023/08/27 05:02:35;;;;;;;17.90;7.10;;;;;;;;;;5019982;28;20041;-71
2023/08/27 05:05:02;;;;;;;10.13;7.63;;;;;;;;;;5025334;28;20063;-72
2023/08/27 05:07:29;;;;;;;10.60;5.82;;;;;;;;;;5018770;28;20037;-72
2023/08/27 05:09:55;;;;;;;12.30;6.95;;;;;;;;;;5021895;28;20025;-72
2023/08/27 05:12:21;;;;;;;7.88;6.50;;;;;;;;;;5003046;28;20030;-71
2023/08/27 05:14:46;;;;;;;10.85;6.40;;;;;;;;;;5017992;28;20022;-72
2023/08/27 05:17:12;;;;;;;16.40;7.90;;;;;;;;;;5018527;28;20041;-71
2023/08/27 05:19:38;;;;;;;15.02;7.60;;;;;;;;;;5012054;28;20030;-71
2023/08/27 05:22:05;;;;;;;12.68;6.82;;;;;;;;;;5005648;28;20087;-71
2023/08/27 05:24:31;;;;;;;11.55;7.38;;;;;;;;;;5037967;28;20030;-71
2023/08/27 05:26:57;;;;;;;15.45;7.78;;;;;;;;;;5018244;28;20030;-72
2023/08/27 05:29:23;;;;;;;11.30;7.18;;;;;;;;;;5027474;28;20444;-72
2023/08/27 05:31:49;;;;;;;13.55;7.10;;;;;;;;;;5020810;28;20052;-71
2023/08/27 05:34:15;;;;;;;10.80;6.75;;;;;;;;;;5022031;28;20410;-71
2023/08/27 05:36:41;;;;;;;10.70;7.07;;;;;;;;;;5014650;28;20133;-71
2023/08/27 05:39:08;;;;;;;9.05;6.15;;;;;;;;;;5022757;28;20017;-72
2023/08/27 05:41:34;;;;;;;20.83;7.32;;;;;;;;;;5020916;28;20029;-72
2023/08/27 05:43:59;;;;;;;11.48;6.57;;;;;;;;;;5017259;28;20022;-71
2023/08/27 05:46:25;;;;;;;13.80;7.07;;;;;;;;;;5010074;28;20064;-71
2023/08/27 05:48:51;;;;;;;12.82;6.57;;;;;;;;;;5025571;28;20090;-70
2023/08/27 05:51:17;;;;;;;9.98;6.22;;;;;;;;;;5012404;28;20509;-72
2023/08/27 05:53:43;;;;;;;12.57;6.68;;;;;;;;;;5007288;28;20021;-72
2023/08/27 05:56:09;;;;;;;14.40;7.18;;;;;;;;;;5011843;28;20021;-72
2023/08/27 05:58:35;;;;;;;13.63;7.18;;;;;;;;;;5022613;28;20117;-72
2023/08/27 06:01:04;;;;;;;11.52;6.55;;;;;;;;;;5025392;28;20033;-72
2023/08/27 06:03:30;;;;;;;9.95;6.70;;;;;;;;;;5008984;28;20030;-72
2023/08/27 06:05:56;;;;;;;17.77;6.90;;;;;;;;;;5025167;28;20035;-71
2023/08/27 06:08:22;;;;;;;13.68;6.80;;;;;;;;;;5026320;28;20084;-72
2023/08/27 06:10:48;;;;;;;10.52;6.60;;;;;;;;;;5022903;28;20036;-72
2023/08/27 06:13:14;;;;;;;10.38;6.50;;;;;;;;;;5019631;28;20459;-72
2023/08/27 06:15:40;;;;;;;11.25;6.03;;;;;;;;;;5023884;28;20060;-72
2023/08/27 06:18:07;;;;;;;14.05;6.53;;;;;;;;;;5021547;28;20036;-72
2023/08/27 06:20:33;;;;;;;9.55;5.93;;;;;;;;;;5038491;28;20383;-72
2023/08/27 06:23:00;;;;;;;11.20;6.45;;;;;;;;;;5024843;28;20040;-72
2023/08/27 06:25:26;;;;;;;12.93;7.13;;;;;;;;;;5009367;28;20028;-72
2023/08/27 06:27:55;;;;;;;12.18;6.10;;;;;;;;;;5024032;28;20033;-72
2023/08/27 06:30:22;;;;;;;9.38;6.40;;;;;;;;;;5024732;28;20044;-72
2023/08/27 06:32:49;;;;;;;13.55;6.22;;;;;;;;;;5016518;28;20021;-71
2023/08/27 06:35:14;;;;;;;13.50;6.28;;;;;;;;;;5024859;28;20026;-72
2023/08/27 06:37:42;;;;;;;10.63;5.93;;;;;;;;;;5016670;28;20045;-71
2023/08/27 06:40:08;;;;;;;12.88;6.90;;;;;;;;;;5020533;28;20186;-71
2023/08/27 06:42:34;;;;;;;8.57;5.85;;;;;;;;;;5014724;28;20034;-72
2023/08/27 06:45:00;;;;;;;10.77;6.07;;;;;;;;;;5014046;28;20087;-72
2023/08/27 06:47:26;;;;;;;7.55;5.68;;;;;;;;;;5020048;28;20104;-71
2023/08/27 06:49:53;;;;;;;12.45;6.05;;;;;;;;;;5020385;28;20068;-71
2023/08/27 06:52:19;;;;;;;11.18;6.43;;;;;;;;;;5015780;28;20474;-71
2023/08/27 06:54:45;;;;;;;10.23;6.88;;;;;;;;;;5021875;28;20124;-72
2023/08/27 06:57:11;;;;;;;17.63;6.57;;;;;;;;;;5006124;28;20034;-72
2023/08/27 06:59:37;;;;;;;8.45;6.28;;;;;;;;;;5009264;28;20396;-72
2023/08/27 07:02:05;;;;;;;8.40;5.88;;;;;;;;;;5014441;28;20053;-72
2023/08/27 07:04:31;;;;;;;12.70;6.35;;;;;;;;;;5013098;28;20050;-72
2023/08/27 07:06:58;;;;;;;11.18;6.03;;;;;;;;;;5021710;28;20037;-71
2023/08/27 07:09:24;;;;;;;10.38;6.03;;;;;;;;;;5029131;28;20036;-72
2023/08/27 07:11:50;;;;;;;11.85;5.90;;;;;;;;;;5023843;28;20026;-72
2023/08/27 07:14:15;;;;;;;8.70;5.47;;;;;;;;;;5018546;28;20505;-71
2023/08/27 07:16:41;;;;;;;8.60;5.53;;;;;;;;;;5012786;28;20026;-72
2023/08/27 07:19:07;;;;;;;9.65;6.20;;;;;;;;;;5012573;28;20029;-72
2023/08/27 07:21:33;;;;;;;11.98;5.53;;;;;;;;;;5012772;28;20121;-72
2023/08/27 07:23:59;;;;;;;9.60;5.68;;;;;;;;;;5012655;28;20522;-72
2023/08/27 07:26:26;;;;;;;10.70;5.78;;;;;;;;;;5029081;28;20083;-72
2023/08/27 07:28:54;;;;;;;7.13;5.68;;;;;;;;;;5012405;28;20041;-71
2023/08/27 07:31:19;;;;;;;9.77;6.35;;;;;;;;;;5012316;28;20046;-72
2023/08/27 07:33:45;;;;;;;10.68;6.05;;;;;;;;;;5012174;28;20365;-70
2023/08/27 07:36:11;;;;;;;7.63;5.28;;;;;;;;;;5028888;28;20038;-73
2023/08/27 07:38:41;;;;;;;7.90;5.22;;;;;;;;;;5029843;28;20036;-72
2023/08/27 07:41:13;;;;;;;9.05;6.00;;;;;;;;;;5013836;28;20038;-74
2023/08/27 07:43:39;;;;;;;9.45;5.90;;;;;;;;;;5013927;28;20085;-71
2023/08/27 07:46:05;;;;;;;6.20;5.07;;;;;;;;;;5030371;28;20080;-72
2023/08/27 07:48:32;;;;;;;8.75;5.55;;;;;;;;;;5017005;28;20034;-71
2023/08/27 07:50:58;;;;;;;6.57;5.70;;;;;;;;;;5013458;28;20026;-71
2023/08/27 07:53:24;;;;;;;7.95;5.57;;;;;;;;;;5028293;28;20484;-71
2023/08/27 07:55:50;;;;;;;9.10;5.80;;;;;;;;;;5012933;28;20054;-71
2023/08/27 07:58:16;;;;;;;10.70;5.80;;;;;;;;;;5011653;28;20492;-71
2023/08/27 08:00:42;;;;;;;11.77;5.80;;;;;;;;;;5011724;28;20044;-73
2023/08/27 08:03:08;;;;;;;8.38;5.65;;;;;;;;;;5011552;28;20034;-71
2023/08/27 08:05:34;;;;;;;9.13;5.43;;;;;;;;;;5013039;28;20032;-71
2023/08/27 08:08:00;;;;;;;7.63;5.80;;;;;;;;;;5012512;28;20040;-71
2023/08/27 08:10:25;;;;;;;8.82;5.97;;;;;;;;;;5013182;28;20021;-71
2023/08/27 08:12:52;;;;;;;7.82;5.70;;;;;;;;;;5011451;28;20406;-71
2023/08/27 08:15:18;;;;;;;7.53;5.00;;;;;;;;;;5027889;28;20439;-71
2023/08/27 08:17:44;;;;;;;7.88;5.55;;;;;;;;;;5012465;28;20040;-72
2023/08/27 08:20:11;;;;;;;8.00;5.25;;;;;;;;;;5012609;28;20446;-72
2023/08/27 08:22:38;;;;;;;10.15;5.65;;;;;;;;;;5012507;28;20034;-74
2023/08/27 08:25:05;;;;;;;6.95;5.78;;;;;;;;;;5012448;28;20029;-72
2023/08/27 08:27:31;;;;;;;7.53;5.35;;;;;;;;;;5012570;28;20349;-71
2023/08/27 08:29:56;;;;;;;7.15;5.25;;;;;;;;;;5012448;28;20032;-72
2023/08/27 08:32:22;;;;;;;7.10;5.30;;;;;;;;;;5012449;28;20044;-71
2023/08/27 08:34:48;;;;;;;9.70;5.18;;;;;;;;;;5012190;28;20022;-72
2023/08/27 08:37:13;;;;;;;7.05;5.47;;;;;;;;;;5012245;28;20147;-72
2023/08/27 08:39:40;;;;;;;9.05;5.65;;;;;;;;;;5011041;28;20029;-72
2023/08/27 08:42:12;;;;;;;7.53;5.97;;;;;;;;;;5012281;28;20038;-71
2023/08/27 08:44:57;;;;;;;7.05;4.90;;;;;;;;;;5012204;28;20038;-71
2023/08/27 08:47:24;;;;;;;12.23;5.85;;;;;;;;;;5012248;28;20087;-72
2023/08/27 08:49:54;;;;;;;8.07;5.25;;;;;;;;;;5012280;28;20107;-71
2023/08/27 08:52:25;;;;;;;9.05;4.68;;;;;;;;;;5012204;28;20046;-72
2023/08/27 08:54:54;;;;;;;9.95;5.38;;;;;;;;;;5012115;28;20095;-72
2023/08/27 08:57:22;;;;;;;8.82;5.18;;;;;;;;;;5011827;28;20033;-72
2023/08/27 08:59:48;;;;;;;19.25;5.28;;;;;;;;;;5012290;28;20038;-71
2023/08/27 09:02:15;;;;;;;6.75;5.10;;;;;;;;;;5012057;28;20056;-72
2023/08/27 09:04:42;;;;;;;9.75;5.50;;;;;;;;;;5012113;28;20571;-72
2023/08/27 09:07:08;;;;;;;8.43;4.85;;;;;;;;;;5013905;28;20479;-72
2023/08/27 09:09:34;;;;;;;5.82;5.00;;;;;;;;;;5020998;28;20037;-72
2023/08/27 09:12:01;;;;;;;7.80;5.20;;;;;;;;;;5022621;28;20029;-72
2023/08/27 09:14:29;;;;;;;8.27;5.10;;;;;;;;;;5009282;28;20484;-71
2023/08/27 09:16:55;;;;;;;11.15;8.68;;;;;;;;;;5021273;28;20205;-71
2023/08/27 09:19:22;;;;;;;8.88;4.68;;;;;;;;;;5030993;28;20108;-71
2023/08/27 09:21:49;;;;;;;6.55;4.50;;;;;;;;;;5031608;28;20109;-72
2023/08/27 09:24:15;;;;;;;7.85;4.75;;;;;;;;;;5031258;28;20048;-72
2023/08/27 09:26:41;;;;;;;11.40;6.55;;;;;;;;;;5031243;28;20021;-72
2023/08/27 09:29:10;;;;;;;8.30;4.93;;;;;;;;;;5029973;28;20036;-72
2023/08/27 09:31:41;;;;;;;7.63;5.00;;;;;;;;;;5031326;28;20025;-71
2023/08/27 09:34:09;;;;;;;7.28;4.95;;;;;;;;;;5033492;28;20435;-72
2023/08/27 09:36:38;;;;;;;7.32;5.65;;;;;;;;;;5035938;28;20096;-72
2023/08/27 09:39:12;;;;;;;6.00;4.80;;;;;;;;;;5026813;28;20487;-72
2023/08/27 09:41:40;;;;;;;8.60;5.35;;;;;;;;;;5028569;28;20423;-72
2023/08/27 09:44:07;;;;;;;8.30;5.13;;;;;;;;;;5023316;28;20061;-73
2023/08/27 09:46:35;;;;;;;8.13;5.50;;;;;;;;;;5022679;28;20033;-71
2023/08/27 09:49:04;;;;;;;7.03;5.25;;;;;;;;;;5031070;28;20056;-72
2023/08/27 09:51:35;;;;;;;7.80;5.32;;;;;;;;;;5022733;28;20034;-72
2023/08/27 09:54:01;;;;;;;8.27;5.65;;;;;;;;;;5012954;28;20484;-72
2023/08/27 09:56:27;;;;;;;6.43;5.22;;;;;;;;;;5011386;28;20105;-71
2023/08/27 09:58:54;;;;;;;7.53;5.15;;;;;;;;;;5011289;28;20057;-70
2023/08/27 10:01:32;;;;;;;8.82;5.10;;;;;;;;;;5009974;28;20040;-71
2023/08/27 10:04:03;;;;;;;5.97;5.07;;;;;;;;;;5011668;28;20076;-73
2023/08/27 10:06:35;;;;;;;6.95;4.90;;;;;;;;;;5011291;28;20033;-73
2023/08/27 10:09:00;;;;;;;8.55;5.47;;;;;;;;;;5011368;28;20037;-71
2023/08/27 10:11:27;;;;;;;6.70;5.22;;;;;;;;;;5011330;28;20549;-73
2023/08/27 10:13:53;;;;;;;7.88;5.20;;;;;;;;;;5011359;28;20030;-72
2023/08/27 10:16:19;;;;;;;9.90;5.60;;;;;;;;;;5011064;28;20030;-72
2023/08/27 10:18:47;;;;;;;9.05;7.25;;;;;;;;;;5011232;28;20038;-71
2023/08/27 10:21:13;;;;;;;11.10;7.43;;;;;;;;;;5011344;28;20070;-71
2023/08/27 10:23:39;;;;;;;9.27;5.18;;;;;;;;;;5009769;28;20392;-72
2023/08/27 10:26:06;;;;;;;12.90;6.18;;;;;;;;;;5010969;28;20445;-72
2023/08/27 10:28:35;;;;;;;7.90;6.78;;;;;;;;;;5010981;28;20121;-70
2023/08/27 10:31:02;;;;;;;8.57;5.53;;;;;;;;;;5012895;28;20129;-71
2023/08/27 10:33:28;;;;;;;7.07;5.07;;;;;;;;;;5014658;28;20511;-71
2023/08/27 10:35:55;;;;;;;8.13;5.40;;;;;;;;;;5013266;28;20070;-72
2023/08/27 10:38:28;;;;;;;9.50;5.28;;;;;;;;;;5014370;28;20033;-72
2023/08/27 10:40:55;;;;;;;10.95;5.57;;;;;;;;;;5013767;28;20044;-72
2023/08/27 10:43:21;;;;;;;7.57;5.28;;;;;;;;;;5014545;28;20030;-71
2023/08/27 10:45:48;;;;;;;11.02;8.02;;;;;;;;;;5014291;28;20034;-71
2023/08/27 10:48:19;;;;;;;8.63;4.75;;;;;;;;;;5014497;28;20049;-71
2023/08/27 10:50:58;;;;;;;9.50;5.22;;;;;;;;;;5014897;28;20628;-72
2023/08/27 10:53:25;;;;;;;7.43;5.28;;;;;;;;;;5013346;28;20049;-71
2023/08/27 10:55:52;;;;;;;7.88;5.50;;;;;;;;;;5014059;28;20025;-71
2023/08/27 10:58:20;;;;;;;9.25;5.35;;;;;;;;;;5013966;28;20046;-71
2023/08/27 11:01:11;;;;;;;10.73;4.88;;;;;;;;;;5014173;28;20065;-72
2023/08/27 11:03:56;;;;;;;7.00;5.00;;;;;;;;;;5014236;28;20033;-73
2023/08/27 11:06:41;;;;;;;18.08;12.93;;;;;;;;;;5013886;28;20037;-72
2023/08/27 11:09:20;;;;;;;9.90;6.28;;;;;;;;;;5014107;28;20105;-71
2023/08/27 11:12:00;;;;;;;10.18;6.32;;;;;;;;;;5012902;28;20034;-72
2023/08/27 11:14:26;;;;;;;6.00;4.80;;;;;;;;;;5014098;28;20030;-72
2023/08/27 11:16:58;;;;;;;6.65;4.93;;;;;;;;;;5013954;28;20153;-71
2023/08/27 11:19:32;;;;;;;7.82;5.32;;;;;;;;;;5014069;28;20117;-71
2023/08/27 11:22:08;;;;;;;7.45;4.50;;;;;;;;;;5014826;28;20050;-71
2023/08/27 11:24:42;;;;;;;8.35;6.28;;;;;;;;;;5017791;28;20452;-72
2023/08/27 11:27:10;;;;;;;8.82;5.03;;;;;;;;;;5014370;28;20054;-71
2023/08/27 11:29:41;;;;;;;6.35;4.50;;;;;;;;;;5013742;28;20076;-72
2023/08/27 11:32:09;;;;;;;8.63;5.40;;;;;;;;;;5013784;28;20118;-72
2023/08/27 11:34:36;;;;;;;10.80;7.28;;;;;;;;;;5028928;28;20384;-72
2023/08/27 11:37:04;;;;;;;9.50;5.70;;;;;;;;;;5012044;28;20046;-72
2023/08/27 11:39:34;;;;;;;9.38;5.55;;;;;;;;;;5013450;28;20026;-71
2023/08/27 11:41:59;;;;;;;5.90;4.95;;;;;;;;;;5012972;28;20029;-71
2023/08/27 11:44:25;;;;;;;6.63;5.07;;;;;;;;;;5013087;28;20594;-72
2023/08/27 11:46:51;;;;;;;8.30;5.10;;;;;;;;;;5013373;28;20041;-72
2023/08/27 11:49:31;;;;;;;7.97;5.20;;;;;;;;;;5013520;28;20018;-72
2023/08/27 11:51:58;;;;;;;8.85;4.60;;;;;;;;;;5011936;28;20192;-71
2023/08/27 11:54:28;;;;;;;5.50;4.85;;;;;;;;;;5013131;28;20149;-71
2023/08/27 11:56:55;;;;;;;6.80;4.93;;;;;;;;;;5011667;28;20029;-72
2023/08/27 11:59:22;;;;;;;8.23;5.03;;;;;;;;;;5013022;28;20032;-71
2023/08/27 12:01:48;;;;;;;6.72;4.90;;;;;;;;;;5013281;28;20034;-72
2023/08/27 12:04:14;;;;;;;8.18;4.97;;;;;;;;;;5012864;28;20499;-72
2023/08/27 12:06:51;;;;;;;7.45;5.35;;;;;;;;;;5012727;28;20038;-71
2023/08/27 12:09:26;;;;;;;13.85;5.35;;;;;;;;;;5013223;28;20034;-71
2023/08/27 12:11:52;;;;;;;6.00;4.70;;;;;;;;;;5012789;28;20069;-72
2023/08/27 12:14:25;;;;;;;7.20;4.65;;;;;;;;;;5012872;28;20093;-72
2023/08/27 12:16:52;;;;;;;7.53;5.55;;;;;;;;;;5012814;28;20037;-72
2023/08/27 12:19:22;;;;;;;8.38;5.00;;;;;;;;;;5012596;28;20040;-72
2023/08/27 12:21:52;;;;;;;6.97;5.07;;;;;;;;;;5012624;28;20036;-73
2023/08/27 12:24:43;;;;;;;8.07;4.78;;;;;;;;;;5012443;28;20121;-72
2023/08/27 12:27:10;;;;;;;7.05;5.22;;;;;;;;;;5012551;28;20034;-72
2023/08/27 12:29:42;;;;;;;7.07;5.30;;;;;;;;;;5012773;28;20029;-72
2023/08/27 12:32:12;;;;;;;8.93;5.37;;;;;;;;;;5027737;28;20480;-73
2023/08/27 12:34:49;;;;;;;7.45;5.80;;;;;;;;;;5028653;28;20314;-73
2023/08/27 12:37:20;;;;;;;7.18;5.53;;;;;;;;;;5031505;28;20123;-72
2023/08/27 12:39:46;;;;;;;10.65;5.55;;;;;;;;;;5031876;28;20038;-73
2023/08/27 12:42:16;;;;;;;10.88;5.95;;;;;;;;;;5030575;28;20033;-72
2023/08/27 12:44:45;;;;;;;6.35;5.13;;;;;;;;;;5031716;28;20029;-73
2023/08/27 12:47:14;;;;;;;7.60;5.70;;;;;;;;;;5031315;28;20063;-72
2023/08/27 12:49:40;;;;;;;8.18;5.82;;;;;;;;;;5031594;28;20029;-73
2023/08/27 12:52:06;;;;;;;7.57;5.40;;;;;;;;;;5046897;28;20021;-71
2023/08/27 12:54:36;;;;;;;8.00;5.45;;;;;;;;;;5046038;28;20726;-72
2023/08/27 12:57:02;;;;;;;10.48;5.22;;;;;;;;;;5029300;28;20033;-72
2023/08/27 12:59:28;;;;;;;7.18;5.25;;;;;;;;;;5018482;28;20032;-73
2023/08/27 13:01:53;;;;;;;7.45;5.47;;;;;;;;;;5020415;28;20100;-73
2023/08/27 13:04:20;;;;;;;9.73;5.50;;;;;;;;;;5016553;28;20479;-71
2023/08/27 13:06:45;;;;;;;6.72;5.20;;;;;;;;;;5025462;28;20109;-73
2023/08/27 13:09:13;;;;;;;8.65;6.00;;;;;;;;;;5020980;28;20722;-73
2023/08/27 13:11:39;;;;;;;7.93;5.80;;;;;;;;;;5018788;28;20041;-72
2023/08/27 13:14:05;;;;;;;8.40;5.25;;;;;;;;;;5028895;28;20025;-72
2023/08/27 13:16:31;;;;;;;6.53;4.90;;;;;;;;;;5029937;28;20375;-73
2023/08/27 13:18:57;;;;;;;10.10;5.43;;;;;;;;;;5031547;28;20033;-72
2023/08/27 13:21:24;;;;;;;7.15;5.10;;;;;;;;;;5031539;28;20449;-72
2023/08/27 13:23:50;;;;;;;7.18;5.15;;;;;;;;;;5029964;28;20069;-72
2023/08/27 13:26:17;;;;;;;6.72;5.43;;;;;;;;;;5031246;28;20105;-72
2023/08/27 13:28:44;;;;;;;8.18;5.03;;;;;;;;;;5031277;28;20033;-72
2023/08/27 13:31:10;;;;;;;8.48;5.28;;;;;;;;;;5031799;28;20064;-71
2023/08/27 13:33:35;;;;;;;7.13;5.40;;;;;;;;;;4999889;28;20073;-73
2023/08/27 13:36:03;;;;;;;6.38;4.70;;;;;;;;;;4990297;28;20050;-73
2023/08/27 13:38:29;;;;;;;8.27;5.15;;;;;;;;;;4991941;28;20092;-72
2023/08/27 13:40:55;;;;;;;5.97;5.10;;;;;;;;;;4992088;28;20392;-71
2023/08/27 13:43:21;;;;;;;7.80;4.90;;;;;;;;;;4992120;28;20472;-72
2023/08/27 13:45:47;;;;;;;6.95;5.00;;;;;;;;;;4992251;28;20043;-72
2023/08/27 13:48:13;;;;;;;6.55;4.78;;;;;;;;;;4990916;28;20046;-70
2023/08/27 13:50:39;;;;;;;8.25;5.03;;;;;;;;;;4992195;28;20034;-72
2023/08/27 13:53:05;;;;;;;6.80;4.65;;;;;;;;;;4990656;28;20031;-73
2023/08/27 13:55:32;;;;;;;7.25;5.07;;;;;;;;;;4991923;28;20033;-74
2023/08/27 13:57:57;;;;;;;8.82;5.30;;;;;;;;;;4992090;28;20112;-71
2023/08/27 14:00:23;;;;;;;7.25;4.78;;;;;;;;;;4990768;28;20515;-72
2023/08/27 14:02:49;;;;;;;7.03;5.07;;;;;;;;;;4992219;28;20439;-73
2023/08/27 14:05:15;;;;;;;7.10;5.03;;;;;;;;;;4994278;28;20189;-74
2023/08/27 14:07:40;;;;;;;8.63;5.05;;;;;;;;;;4995328;28;20053;-71
2023/08/27 14:10:07;;;;;;;7.68;5.35;;;;;;;;;;4995726;28;20034;-71
2023/08/27 14:12:34;;;;;;;6.97;4.68;;;;;;;;;;4995735;28;20450;-71
2023/08/27 14:14:59;;;;;;;10.05;4.78;;;;;;;;;;4994282;28;20026;-71
2023/08/27 14:17:25;;;;;;;10.57;5.50;;;;;;;;;;4995299;28;20045;-71
2023/08/27 14:19:51;;;;;;;5.97;4.93;;;;;;;;;;4995435;28;20100;-72
2023/08/27 14:22:17;;;;;;;7.25;5.43;;;;;;;;;;4993801;28;20385;-72
2023/08/27 14:24:43;;;;;;;7.65;5.03;;;;;;;;;;4994915;28;20073;-72
2023/08/27 14:27:09;;;;;;;11.75;5.18;;;;;;;;;;4993982;28;20053;-71
2023/08/27 14:29:34;;;;;;;8.73;5.03;;;;;;;;;;4995359;28;20336;-70
2023/08/27 14:32:03;;;;;;;5.75;4.53;;;;;;;;;;4995402;28;20042;-72
2023/08/27 14:34:29;;;;;;;7.85;4.53;;;;;;;;;;4995362;28;20393;-74
2023/08/27 14:36:56;;;;;;;7.18;4.95;;;;;;;;;;4994853;28;20072;-71
2023/08/27 14:39:22;;;;;;;6.47;5.10;;;;;;;;;;4993731;28;20030;-72